Time;durP1;ratioP1;P1;durP2;ratioP2;P2;SDS_P1;SDS_P2;PMS_P1;PMS_P2;Temp;Humidity;BMP_temperature;BMP_pressure;BME280_temperature;BME280_humidity;BME280_pressure;Samples;Min_cycle;Max_cycle;Signal;HPM_P1;HPM_P2
2021/04/17 00:00:17;;;;;;;3.30;3.10;;;;;;;;;;5013110;28;20709;-48
2021/04/17 00:02:42;;;;;;;4.50;3.40;;;;;;;;;;5002878;28;20198;-46
2021/04/17 00:05:07;;;;;;;4.97;3.08;;;;;;;;;;5012397;28;20185;-46
2021/04/17 00:07:33;;;;;;;4.60;3.50;;;;;;;;;;4997795;28;20177;-46
2021/04/17 00:09:58;;;;;;;4.53;3.30;;;;;;;;;;5006926;28;20214;-47
2021/04/17 00:12:23;;;;;;;4.77;3.17;;;;;;;;;;5014249;28;20174;-46
2021/04/17 00:14:50;;;;;;;3.17;2.97;;;;;;;;;;5006074;28;20222;-46
2021/04/17 00:17:16;;;;;;;3.53;3.23;;;;;;;;;;5008696;28;20225;-47
2021/04/17 00:19:42;;;;;;;3.77;3.10;;;;;;;;;;5005796;28;20625;-46
2021/04/17 00:22:08;;;;;;;3.90;3.60;;;;;;;;;;5012883;28;21019;-46
2021/04/17 00:24:33;;;;;;;4.73;3.53;;;;;;;;;;5008710;28;20175;-47
2021/04/17 00:26:58;;;;;;;4.25;3.40;;;;;;;;;;5010125;28;20255;-46
2021/04/17 00:29:23;;;;;;;5.00;3.93;;;;;;;;;;5008920;28;20204;-48
2021/04/17 00:31:49;;;;;;;4.60;3.07;;;;;;;;;;5005740;28;20744;-46
2021/04/17 00:34:14;;;;;;;3.45;3.15;;;;;;;;;;5006142;28;20214;-47
2021/04/17 00:36:39;;;;;;;4.00;3.58;;;;;;;;;;5002345;28;20175;-48
2021/04/17 00:39:06;;;;;;;4.00;3.50;;;;;;;;;;5004933;28;20305;-48
2021/04/17 00:41:31;;;;;;;3.37;3.00;;;;;;;;;;5008716;28;20204;-48
2021/04/17 00:43:56;;;;;;;4.57;3.53;;;;;;;;;;5005368;28;20664;-48
2021/04/17 00:46:22;;;;;;;3.40;3.05;;;;;;;;;;4998513;28;20180;-47
2021/04/17 00:48:47;;;;;;;3.07;2.80;;;;;;;;;;5007229;28;20748;-47
2021/04/17 00:51:12;;;;;;;5.53;3.57;;;;;;;;;;5003341;28;20185;-47
2021/04/17 00:53:37;;;;;;;3.67;3.37;;;;;;;;;;4991955;28;20212;-47
2021/04/17 00:56:04;;;;;;;6.00;3.57;;;;;;;;;;5007255;28;20213;-47
2021/04/17 00:58:29;;;;;;;3.53;3.23;;;;;;;;;;5008299;28;20185;-47
2021/04/17 01:00:54;;;;;;;3.88;3.20;;;;;;;;;;5010047;28;20590;-52
2021/04/17 01:03:38;;;;;;;5.45;3.50;;;;;;;;;;5005464;28;20181;-47
2021/04/17 01:06:05;;;;;;;6.73;3.60;;;;;;;;;;5000539;28;20700;-47
2021/04/17 01:08:36;;;;;;;3.30;3.00;;;;;;;;;;4995447;28;20635;-46
2021/04/17 01:11:04;;;;;;;4.40;3.47;;;;;;;;;;5004513;28;20678;-46
2021/04/17 01:13:29;;;;;;;3.67;3.30;;;;;;;;;;5004017;28;20734;-46
2021/04/17 01:15:55;;;;;;;4.27;3.87;;;;;;;;;;5009006;28;20679;-46
2021/04/17 01:18:22;;;;;;;4.30;3.90;;;;;;;;;;5003018;28;20199;-46
2021/04/17 01:20:49;;;;;;;4.20;2.97;;;;;;;;;;5000212;28;20174;-46
2021/04/17 01:23:14;;;;;;;7.30;3.80;;;;;;;;;;5003771;28;21197;-46
2021/04/17 01:25:46;;;;;;;4.55;3.67;;;;;;;;;;5003724;28;20934;-46
2021/04/17 01:28:12;;;;;;;5.93;3.30;;;;;;;;;;5009596;28;20306;-48
2021/04/17 01:30:37;;;;;;;4.47;3.20;;;;;;;;;;5005204;28;20678;-48
2021/04/17 01:33:02;;;;;;;3.80;3.00;;;;;;;;;;5006539;28;20566;-47
2021/04/17 01:35:28;;;;;;;3.77;3.47;;;;;;;;;;4994400;28;20177;-46
2021/04/17 01:37:53;;;;;;;5.97;3.80;;;;;;;;;;5006156;28;20275;-46
2021/04/17 01:40:20;;;;;;;4.80;3.38;;;;;;;;;;5007692;28;20172;-46
2021/04/17 01:42:45;;;;;;;3.10;2.90;;;;;;;;;;4995594;28;20220;-46
2021/04/17 01:45:11;;;;;;;3.33;3.03;;;;;;;;;;5004681;28;20615;-46
2021/04/17 01:47:37;;;;;;;5.33;3.13;;;;;;;;;;4998947;28;20528;-46
2021/04/17 01:50:02;;;;;;;3.77;2.97;;;;;;;;;;5002257;28;20675;-46
2021/04/17 01:52:28;;;;;;;4.27;2.80;;;;;;;;;;5009455;28;20170;-47
2021/04/17 01:54:54;;;;;;;3.17;2.87;;;;;;;;;;5006291;28;20635;-46
2021/04/17 01:57:22;;;;;;;5.00;2.73;;;;;;;;;;4989933;28;20176;-48
2021/04/17 01:59:48;;;;;;;3.47;2.83;;;;;;;;;;4991315;28;20710;-47
2021/04/17 02:02:14;;;;;;;3.93;3.03;;;;;;;;;;5009142;28;20679;-47
2021/04/17 02:04:39;;;;;;;6.40;3.20;;;;;;;;;;5003768;28;20581;-46
2021/04/17 02:07:04;;;;;;;3.50;3.20;;;;;;;;;;4991003;28;20191;-46
2021/04/17 02:09:29;;;;;;;2.97;2.63;;;;;;;;;;5006915;28;20571;-46
2021/04/17 02:11:54;;;;;;;3.93;2.90;;;;;;;;;;4992512;28;20178;-46
2021/04/17 02:14:20;;;;;;;2.83;2.60;;;;;;;;;;5007334;28;20209;-46
2021/04/17 02:16:50;;;;;;;4.57;3.07;;;;;;;;;;5000017;28;20246;-46
2021/04/17 02:19:21;;;;;;;5.20;3.07;;;;;;;;;;5008767;28;20176;-46
2021/04/17 02:21:47;;;;;;;3.93;2.80;;;;;;;;;;5006396;28;20692;-46
2021/04/17 02:24:13;;;;;;;3.10;2.90;;;;;;;;;;5008316;28;21349;-46
2021/04/17 02:26:38;;;;;;;3.80;3.43;;;;;;;;;;5005908;28;20643;-46
2021/04/17 02:29:04;;;;;;;4.43;3.13;;;;;;;;;;4990423;28;20203;-46
2021/04/17 02:31:29;;;;;;;3.80;3.10;;;;;;;;;;5001999;28;20189;-46
2021/04/17 02:33:55;;;;;;;3.73;3.43;;;;;;;;;;4991135;28;20897;-47
2021/04/17 02:36:20;;;;;;;3.40;3.10;;;;;;;;;;5004304;28;20178;-46
2021/04/17 02:38:45;;;;;;;4.30;3.30;;;;;;;;;;4989295;28;20178;-46
2021/04/17 02:41:13;;;;;;;4.50;3.00;;;;;;;;;;5000190;28;20174;-46
2021/04/17 02:43:38;;;;;;;4.30;3.10;;;;;;;;;;4998440;28;20264;-46
2021/04/17 02:46:03;;;;;;;4.90;3.10;;;;;;;;;;4996082;28;20632;-46
2021/04/17 02:48:28;;;;;;;3.67;3.30;;;;;;;;;;5006181;28;20239;-47
2021/04/17 02:50:53;;;;;;;3.50;3.20;;;;;;;;;;5002805;28;20178;-46
2021/04/17 02:53:19;;;;;;;3.30;3.00;;;;;;;;;;4997508;28;20344;-46
2021/04/17 02:55:44;;;;;;;6.97;3.03;;;;;;;;;;4996339;28;20174;-46
2021/04/17 02:58:09;;;;;;;4.13;2.97;;;;;;;;;;4998936;28;20182;-47
2021/04/17 03:00:34;;;;;;;3.65;3.22;;;;;;;;;;4999168;28;20175;-47
2021/04/17 03:02:59;;;;;;;4.63;3.40;;;;;;;;;;5008648;28;20188;-46
2021/04/17 03:05:25;;;;;;;4.28;3.40;;;;;;;;;;5006382;28;20219;-47
2021/04/17 03:07:50;;;;;;;4.07;3.33;;;;;;;;;;5008488;28;20177;-46
2021/04/17 03:10:15;;;;;;;3.50;3.20;;;;;;;;;;5007785;28;20174;-46
2021/04/17 03:12:40;;;;;;;7.37;4.20;;;;;;;;;;5002639;28;20283;-47
2021/04/17 03:15:06;;;;;;;8.00;4.40;;;;;;;;;;5001436;28;20272;-46
2021/04/17 03:17:32;;;;;;;5.90;4.50;;;;;;;;;;5001677;28;20240;-46
2021/04/17 03:19:57;;;;;;;4.30;4.00;;;;;;;;;;5006312;28;20661;-47
2021/04/17 03:22:22;;;;;;;5.47;5.00;;;;;;;;;;5004674;28;20228;-46
2021/04/17 03:24:47;;;;;;;4.90;4.10;;;;;;;;;;4995719;28;20165;-48
2021/04/17 03:27:13;;;;;;;4.30;3.90;;;;;;;;;;5005861;28;20228;-46
2021/04/17 03:29:38;;;;;;;5.70;4.80;;;;;;;;;;4992926;28;20687;-46
2021/04/17 03:32:03;;;;;;;6.10;4.97;;;;;;;;;;4991603;28;20183;-46
2021/04/17 03:34:28;;;;;;;6.60;4.67;;;;;;;;;;5003471;28;20309;-46
2021/04/17 03:36:54;;;;;;;7.23;4.43;;;;;;;;;;4993949;28;20178;-46
2021/04/17 03:39:19;;;;;;;5.53;4.90;;;;;;;;;;4996469;28;20682;-46
2021/04/17 03:41:44;;;;;;;5.03;4.40;;;;;;;;;;5007658;28;20215;-46
2021/04/17 03:44:09;;;;;;;5.43;4.40;;;;;;;;;;4989621;28;20265;-47
2021/04/17 03:46:35;;;;;;;6.07;4.23;;;;;;;;;;5001368;28;20205;-47
2021/04/17 03:49:00;;;;;;;5.47;4.80;;;;;;;;;;5004566;28;20185;-46
2021/04/17 03:51:25;;;;;;;4.87;4.43;;;;;;;;;;5004288;28;20590;-47
2021/04/17 03:53:50;;;;;;;7.07;4.13;;;;;;;;;;4989187;28;20684;-47
2021/04/17 03:56:15;;;;;;;6.20;4.30;;;;;;;;;;5004978;28;20181;-46
2021/04/17 03:58:41;;;;;;;4.40;4.00;;;;;;;;;;5008029;28;20250;-46
2021/04/17 04:01:06;;;;;;;5.57;3.77;;;;;;;;;;5000038;28;20699;-46
2021/04/17 04:03:31;;;;;;;4.63;4.20;;;;;;;;;;4997647;28;20184;-47
2021/04/17 04:05:56;;;;;;;5.63;4.78;;;;;;;;;;5011089;28;20181;-47
2021/04/17 04:08:22;;;;;;;4.47;4.07;;;;;;;;;;4998531;28;20189;-47
2021/04/17 04:10:47;;;;;;;5.38;4.32;;;;;;;;;;4999912;28;20177;-47
2021/04/17 04:13:12;;;;;;;7.80;4.50;;;;;;;;;;4999222;28;20558;-47
2021/04/17 04:15:37;;;;;;;6.70;3.93;;;;;;;;;;4998794;28;20255;-46
2021/04/17 04:18:02;;;;;;;5.00;3.77;;;;;;;;;;4996219;28;20314;-46
2021/04/17 04:20:28;;;;;;;6.90;4.50;;;;;;;;;;4999645;28;20174;-47
2021/04/17 04:22:53;;;;;;;4.97;4.40;;;;;;;;;;4994775;28;20178;-46
2021/04/17 04:25:18;;;;;;;4.80;4.40;;;;;;;;;;4997671;28;20528;-47
2021/04/17 04:27:43;;;;;;;8.55;4.15;;;;;;;;;;5010332;28;20635;-47
2021/04/17 04:30:09;;;;;;;6.05;4.35;;;;;;;;;;5000481;28;20178;-46
2021/04/17 04:32:35;;;;;;;4.10;3.80;;;;;;;;;;5003183;28;20177;-47
2021/04/17 04:35:00;;;;;;;8.70;4.87;;;;;;;;;;5005104;28;20604;-46
2021/04/17 04:37:25;;;;;;;5.30;4.30;;;;;;;;;;5010043;28;20177;-46
2021/04/17 04:39:50;;;;;;;4.00;3.70;;;;;;;;;;4999924;28;20178;-49
2021/04/17 04:42:15;;;;;;;5.27;3.90;;;;;;;;;;5010901;28;20169;-47
2021/04/17 04:44:40;;;;;;;5.00;4.60;;;;;;;;;;4999117;28;20176;-47
2021/04/17 04:47:06;;;;;;;4.70;4.00;;;;;;;;;;5008696;28;20249;-47
2021/04/17 04:49:31;;;;;;;9.07;4.13;;;;;;;;;;4995206;28;20170;-46
2021/04/17 04:51:56;;;;;;;4.63;4.23;;;;;;;;;;5002474;28;20174;-47
2021/04/17 04:54:21;;;;;;;4.80;4.40;;;;;;;;;;5003069;28;20205;-48
2021/04/17 04:56:46;;;;;;;5.20;4.70;;;;;;;;;;5002556;28;20184;-46
2021/04/17 04:59:11;;;;;;;6.72;5.05;;;;;;;;;;5006522;28;20632;-47
2021/04/17 05:01:37;;;;;;;5.50;5.00;;;;;;;;;;4995210;28;20181;-46
2021/04/17 05:04:02;;;;;;;7.05;4.68;;;;;;;;;;5002307;28;20196;-46
2021/04/17 05:06:27;;;;;;;6.40;5.10;;;;;;;;;;5006750;28;20205;-46
2021/04/17 05:08:52;;;;;;;4.77;4.27;;;;;;;;;;4996815;28;20532;-47
2021/04/17 05:11:18;;;;;;;5.40;4.90;;;;;;;;;;5007156;28;20174;-46
2021/04/17 05:13:43;;;;;;;5.27;4.77;;;;;;;;;;5007983;28;20659;-47
2021/04/17 05:16:08;;;;;;;6.07;4.53;;;;;;;;;;5006344;28;20226;-46
2021/04/17 05:18:35;;;;;;;6.53;5.93;;;;;;;;;;5008083;28;20723;-47
2021/04/17 05:21:00;;;;;;;6.30;5.00;;;;;;;;;;5010201;28;20235;-46
2021/04/17 05:23:25;;;;;;;7.25;5.07;;;;;;;;;;5010284;28;20985;-46
2021/04/17 05:25:50;;;;;;;5.15;4.65;;;;;;;;;;5007590;28;20262;-47
2021/04/17 05:28:15;;;;;;;7.20;6.03;;;;;;;;;;5007572;28;20188;-47
2021/04/17 05:30:40;;;;;;;6.20;5.57;;;;;;;;;;5009526;28;20187;-47
2021/04/17 05:33:06;;;;;;;9.33;4.93;;;;;;;;;;5008507;28;20199;-47
2021/04/17 05:35:31;;;;;;;4.93;4.47;;;;;;;;;;4999593;28;20210;-46
2021/04/17 05:37:56;;;;;;;6.87;5.07;;;;;;;;;;4999946;28;20178;-50
2021/04/17 05:40:21;;;;;;;5.63;5.00;;;;;;;;;;5002642;28;20245;-46
2021/04/17 05:42:46;;;;;;;5.57;5.07;;;;;;;;;;5003884;28;20321;-46
2021/04/17 05:45:12;;;;;;;6.10;5.50;;;;;;;;;;5007676;28;20230;-46
2021/04/17 05:47:37;;;;;;;5.87;5.20;;;;;;;;;;5001740;28;20224;-46
2021/04/17 05:50:02;;;;;;;6.28;5.55;;;;;;;;;;5001331;28;20343;-46
2021/04/17 05:52:27;;;;;;;5.87;5.30;;;;;;;;;;4994663;28;20216;-47
2021/04/17 05:54:53;;;;;;;7.20;5.70;;;;;;;;;;5008281;28;20623;-47
2021/04/17 05:57:18;;;;;;;5.23;4.73;;;;;;;;;;5007530;28;20165;-47
2021/04/17 05:59:43;;;;;;;7.13;4.63;;;;;;;;;;5008527;28;20176;-49
2021/04/17 06:02:08;;;;;;;7.35;5.22;;;;;;;;;;5003937;28;20248;-47
2021/04/17 06:04:33;;;;;;;5.53;5.03;;;;;;;;;;5006280;28;20194;-47
2021/04/17 06:06:59;;;;;;;6.10;5.57;;;;;;;;;;5008807;28;20222;-48
2021/04/17 06:09:24;;;;;;;5.77;5.37;;;;;;;;;;5006555;28;20189;-46
2021/04/17 06:11:49;;;;;;;8.37;5.80;;;;;;;;;;5006188;28;20190;-48
2021/04/17 06:14:14;;;;;;;7.83;5.17;;;;;;;;;;5007254;28;20410;-46
2021/04/17 06:16:39;;;;;;;7.60;5.60;;;;;;;;;;5004086;28;20217;-46
2021/04/17 06:19:05;;;;;;;7.30;5.23;;;;;;;;;;5004248;28;20179;-46
2021/04/17 06:21:31;;;;;;;7.23;6.40;;;;;;;;;;5000109;28;20173;-47
2021/04/17 06:23:56;;;;;;;6.10;5.50;;;;;;;;;;4995212;28;20610;-47
2021/04/17 06:26:21;;;;;;;5.77;5.17;;;;;;;;;;5005852;28;20644;-46
2021/04/17 06:28:46;;;;;;;5.35;4.85;;;;;;;;;;5008571;28;20178;-46
2021/04/17 06:31:11;;;;;;;6.70;5.55;;;;;;;;;;5000997;28;20321;-46
2021/04/17 06:33:37;;;;;;;7.67;5.47;;;;;;;;;;5007604;28;20339;-47
2021/04/17 06:36:06;;;;;;;5.85;5.45;;;;;;;;;;5005431;28;20204;-46
2021/04/17 06:38:31;;;;;;;5.97;5.40;;;;;;;;;;5007605;28;20214;-46
2021/04/17 06:40:56;;;;;;;5.68;5.07;;;;;;;;;;5009142;28;20627;-46
2021/04/17 06:43:22;;;;;;;5.32;4.93;;;;;;;;;;5006608;28;20181;-46
2021/04/17 06:45:48;;;;;;;7.40;4.83;;;;;;;;;;5007551;28;20228;-47
2021/04/17 06:48:15;;;;;;;5.77;4.93;;;;;;;;;;5006307;28;20613;-46
2021/04/17 06:50:40;;;;;;;5.00;4.60;;;;;;;;;;5002271;28;20184;-46
2021/04/17 06:53:09;;;;;;;5.23;4.73;;;;;;;;;;5006445;28;20645;-46
2021/04/17 06:55:35;;;;;;;5.60;5.07;;;;;;;;;;4997786;28;20203;-46
2021/04/17 06:58:00;;;;;;;7.03;4.97;;;;;;;;;;5003468;28;21185;-46
2021/04/17 07:00:26;;;;;;;5.80;5.03;;;;;;;;;;5001956;28;20243;-46
2021/04/17 07:02:51;;;;;;;4.50;4.20;;;;;;;;;;4997965;28;20763;-46
2021/04/17 07:05:16;;;;;;;4.80;4.40;;;;;;;;;;5007139;28;20196;-46
2021/04/17 07:07:41;;;;;;;5.80;4.60;;;;;;;;;;5007370;28;20191;-46
2021/04/17 07:10:07;;;;;;;5.10;4.67;;;;;;;;;;5006425;28;20177;-46
2021/04/17 07:12:32;;;;;;;4.70;4.30;;;;;;;;;;4994911;28;20265;-47
2021/04/17 07:15:02;;;;;;;7.87;5.20;;;;;;;;;;5007803;28;20646;-46
2021/04/17 07:17:31;;;;;;;6.13;4.63;;;;;;;;;;5007677;28;20228;-46
2021/04/17 07:19:59;;;;;;;4.67;4.27;;;;;;;;;;5007705;28;20610;-46
2021/04/17 07:22:43;;;;;;;6.53;4.53;;;;;;;;;;5002086;28;20607;-46
2021/04/17 07:25:08;;;;;;;4.17;3.53;;;;;;;;;;5005373;28;20592;-47
2021/04/17 07:27:35;;;;;;;3.72;3.40;;;;;;;;;;5007710;28;20583;-46
2021/04/17 07:30:02;;;;;;;3.77;3.47;;;;;;;;;;5005987;28;20182;-47
2021/04/17 07:32:27;;;;;;;3.87;3.47;;;;;;;;;;5005497;28;20960;-47
2021/04/17 07:35:08;;;;;;;5.83;4.13;;;;;;;;;;5007159;28;20600;-47
2021/04/17 07:37:33;;;;;;;3.60;3.30;;;;;;;;;;5012045;28;20451;-47
2021/04/17 07:40:17;;;;;;;3.80;3.30;;;;;;;;;;5010474;28;20608;-47
2021/04/17 07:42:46;;;;;;;4.30;3.70;;;;;;;;;;5004887;28;20176;-47
2021/04/17 07:45:19;;;;;;;5.93;4.80;;;;;;;;;;5012341;28;20934;-47
2021/04/17 07:47:44;;;;;;;5.53;4.40;;;;;;;;;;5011952;28;21166;-47
2021/04/17 07:50:11;;;;;;;3.70;3.30;;;;;;;;;;5010794;28;20698;-47
2021/04/17 07:52:37;;;;;;;4.00;3.60;;;;;;;;;;5011296;28;20175;-48
2021/04/17 07:55:05;;;;;;;4.57;3.90;;;;;;;;;;5011538;28;20582;-47
2021/04/17 07:57:31;;;;;;;3.53;3.23;;;;;;;;;;5011566;28;20171;-47
2021/04/17 07:59:57;;;;;;;8.87;5.50;;;;;;;;;;4997362;28;21210;-47
2021/04/17 08:02:22;;;;;;;4.73;4.20;;;;;;;;;;5019226;28;20690;-46
2021/04/17 08:04:48;;;;;;;5.43;4.37;;;;;;;;;;5013867;28;20662;-47
2021/04/17 08:07:13;;;;;;;4.30;3.30;;;;;;;;;;5028751;28;20290;-47
2021/04/17 08:09:40;;;;;;;4.07;3.03;;;;;;;;;;5022186;28;20593;-47
2021/04/17 08:12:06;;;;;;;4.60;3.93;;;;;;;;;;5010577;28;20944;-47
2021/04/17 08:14:31;;;;;;;8.77;5.77;;;;;;;;;;5010706;28;20737;-47
2021/04/17 08:16:56;;;;;;;3.90;3.53;;;;;;;;;;5011127;28;20233;-47
2021/04/17 08:19:21;;;;;;;4.87;3.30;;;;;;;;;;5010356;28;20215;-47
2021/04/17 08:21:48;;;;;;;4.53;3.10;;;;;;;;;;5010009;28;20654;-46
2021/04/17 08:24:13;;;;;;;4.50;3.13;;;;;;;;;;5001036;28;20177;-46
2021/04/17 08:26:39;;;;;;;3.50;3.20;;;;;;;;;;5010030;28;21153;-46
2021/04/17 08:29:04;;;;;;;3.60;3.30;;;;;;;;;;5007356;28;20607;-46
2021/04/17 08:31:31;;;;;;;3.50;3.20;;;;;;;;;;4997720;28;20186;-47
2021/04/17 08:34:07;;;;;;;4.33;2.83;;;;;;;;;;5000899;28;20208;-46
2021/04/17 08:36:33;;;;;;;3.70;3.40;;;;;;;;;;4999473;28;20607;-47
2021/04/17 08:38:58;;;;;;;4.27;3.40;;;;;;;;;;4990965;28;20762;-47
2021/04/17 08:41:43;;;;;;;5.60;3.90;;;;;;;;;;5000724;28;20701;-47
2021/04/17 08:44:30;;;;;;;4.37;3.40;;;;;;;;;;4993148;28;20183;-47
2021/04/17 08:46:56;;;;;;;3.73;3.43;;;;;;;;;;4990152;28;20626;-47
2021/04/17 08:49:22;;;;;;;4.30;3.20;;;;;;;;;;4989890;28;20575;-46
2021/04/17 08:51:47;;;;;;;3.80;3.43;;;;;;;;;;5004769;28;20213;-46
2021/04/17 08:54:14;;;;;;;4.18;3.30;;;;;;;;;;5009552;28;20699;-46
2021/04/17 08:56:47;;;;;;;5.00;3.97;;;;;;;;;;5009941;28;20182;-46
2021/04/17 08:59:12;;;;;;;3.63;3.37;;;;;;;;;;5009674;28;20638;-46
2021/04/17 09:01:41;;;;;;;3.10;2.90;;;;;;;;;;5008763;28;20706;-47
2021/04/17 09:04:08;;;;;;;3.90;3.50;;;;;;;;;;5009414;28;20651;-47
2021/04/17 09:06:33;;;;;;;4.27;3.80;;;;;;;;;;5009535;28;20661;-46
2021/04/17 09:09:16;;;;;;;3.60;3.30;;;;;;;;;;5009960;28;20630;-47
2021/04/17 09:11:46;;;;;;;5.30;4.30;;;;;;;;;;5009319;28;20554;-47
2021/04/17 09:14:30;;;;;;;4.60;4.17;;;;;;;;;;5008434;28;20655;-47
2021/04/17 09:17:00;;;;;;;4.30;3.87;;;;;;;;;;4989900;28;20684;-47
2021/04/17 09:22:25;;;;;;;4.70;4.23;;;;;;;;;;5009136;28;21154;-47
2021/04/17 09:25:01;;;;;;;4.00;3.70;;;;;;;;;;5005173;28;20606;-47
2021/04/17 09:27:37;;;;;;;4.30;3.93;;;;;;;;;;4989697;28;20564;-47
2021/04/17 09:30:05;;;;;;;4.70;4.17;;;;;;;;;;4996827;28;20603;-47
2021/04/17 09:32:30;;;;;;;4.77;4.37;;;;;;;;;;5006774;28;20666;-47
2021/04/17 09:34:56;;;;;;;4.85;4.03;;;;;;;;;;4989355;28;20596;-47
2021/04/17 09:37:21;;;;;;;4.27;3.97;;;;;;;;;;4995264;28;20188;-46
2021/04/17 09:39:46;;;;;;;5.70;4.60;;;;;;;;;;5001778;28;20183;-46
2021/04/17 09:42:11;;;;;;;4.40;4.00;;;;;;;;;;5003676;28;20519;-46
2021/04/17 09:44:44;;;;;;;4.73;4.07;;;;;;;;;;5005463;28;20620;-46
2021/04/17 09:47:11;;;;;;;4.27;3.97;;;;;;;;;;5009087;28;20174;-46
2021/04/17 09:49:37;;;;;;;7.93;3.73;;;;;;;;;;5007204;28;20593;-46
2021/04/17 09:52:03;;;;;;;3.77;3.43;;;;;;;;;;5009185;28;20577;-47
2021/04/17 09:54:28;;;;;;;4.73;4.07;;;;;;;;;;5009129;28;20636;-47
2021/04/17 09:56:54;;;;;;;4.60;4.20;;;;;;;;;;5009106;28;20173;-46
2021/04/17 09:59:19;;;;;;;5.57;4.57;;;;;;;;;;5007654;28;20184;-47
2021/04/17 10:01:51;;;;;;;4.83;4.33;;;;;;;;;;5008416;28;20620;-46
2021/04/17 10:04:16;;;;;;;4.53;4.20;;;;;;;;;;5008809;28;20175;-47
2021/04/17 10:06:41;;;;;;;4.80;4.40;;;;;;;;;;5008917;28;20978;-46
2021/04/17 10:09:06;;;;;;;5.03;4.10;;;;;;;;;;5008706;28;20445;-47
2021/04/17 10:11:32;;;;;;;4.32;4.00;;;;;;;;;;5002668;28;20196;-46
2021/04/17 10:13:58;;;;;;;5.40;4.73;;;;;;;;;;4989620;28;20692;-46
2021/04/17 10:16:26;;;;;;;4.90;4.50;;;;;;;;;;4989024;28;20755;-46
2021/04/17 10:18:51;;;;;;;5.07;4.67;;;;;;;;;;4991317;28;20210;-46
2021/04/17 10:21:21;;;;;;;5.70;4.40;;;;;;;;;;5008525;28;20635;-46
2021/04/17 10:24:06;;;;;;;6.23;4.50;;;;;;;;;;5008324;28;20453;-47
2021/04/17 10:26:31;;;;;;;5.20;4.80;;;;;;;;;;5008469;28;20657;-47
2021/04/17 10:28:57;;;;;;;6.80;4.93;;;;;;;;;;5006359;28;20572;-46
2021/04/17 10:31:22;;;;;;;4.85;4.13;;;;;;;;;;4988606;28;20837;-46
2021/04/17 10:33:48;;;;;;;5.40;4.90;;;;;;;;;;4988867;28;20212;-46
2021/04/17 10:36:14;;;;;;;4.90;4.50;;;;;;;;;;4990892;28;20229;-46
2021/04/17 10:38:41;;;;;;;4.87;4.47;;;;;;;;;;4988528;28;20616;-46
2021/04/17 10:41:06;;;;;;;4.50;4.20;;;;;;;;;;4988491;28;20590;-47
2021/04/17 10:43:32;;;;;;;4.90;4.50;;;;;;;;;;4988717;28;20627;-47
2021/04/17 10:45:58;;;;;;;5.57;4.23;;;;;;;;;;4989601;28;20190;-47
2021/04/17 10:48:24;;;;;;;5.53;4.10;;;;;;;;;;4988443;28;20186;-47
2021/04/17 10:51:07;;;;;;;4.73;4.33;;;;;;;;;;4991927;28;21068;-47
2021/04/17 10:53:33;;;;;;;5.60;4.90;;;;;;;;;;5008040;28;20654;-48
2021/04/17 10:56:01;;;;;;;4.60;4.20;;;;;;;;;;5002741;28;20628;-47
2021/04/17 10:58:28;;;;;;;4.73;4.33;;;;;;;;;;4988123;28;20580;-47
2021/04/17 11:00:56;;;;;;;4.60;4.30;;;;;;;;;;4988103;28;20734;-47
2021/04/17 11:03:22;;;;;;;5.13;4.60;;;;;;;;;;4988692;28;20585;-47
2021/04/17 11:05:47;;;;;;;4.40;4.00;;;;;;;;;;4989150;28;21286;-47
2021/04/17 11:08:23;;;;;;;5.10;4.70;;;;;;;;;;4989678;28;20598;-47
2021/04/17 11:10:48;;;;;;;5.73;4.60;;;;;;;;;;4987738;28;20620;-47
2021/04/17 11:13:26;;;;;;;5.07;4.57;;;;;;;;;;4987996;28;20635;-47
2021/04/17 11:15:51;;;;;;;5.60;5.20;;;;;;;;;;4987905;28;20798;-47
2021/04/17 11:18:18;;;;;;;5.55;5.05;;;;;;;;;;4997732;28;21181;-47
2021/04/17 11:20:46;;;;;;;6.40;4.47;;;;;;;;;;5006936;28;20642;-47
2021/04/17 11:23:48;;;;;;;6.77;4.70;;;;;;;;;;5000955;28;20775;-47
2021/04/17 11:26:14;;;;;;;4.90;4.43;;;;;;;;;;4969367;28;20968;-47
2021/04/17 11:28:41;;;;;;;5.10;4.60;;;;;;;;;;4987809;28;20650;-47
2021/04/17 11:31:07;;;;;;;5.03;4.63;;;;;;;;;;4988869;28;20634;-47
2021/04/17 11:33:32;;;;;;;4.90;4.50;;;;;;;;;;4996325;28;20638;-47
2021/04/17 11:35:58;;;;;;;5.00;4.50;;;;;;;;;;5003660;28;21266;-47
2021/04/17 11:38:23;;;;;;;4.70;4.30;;;;;;;;;;5005355;28;20182;-47
2021/04/17 11:40:48;;;;;;;5.20;4.70;;;;;;;;;;4990834;28;20278;-47
2021/04/17 11:43:13;;;;;;;5.87;5.37;;;;;;;;;;4987055;28;20215;-47
2021/04/17 11:45:38;;;;;;;6.90;5.30;;;;;;;;;;4994206;28;20426;-47
2021/04/17 11:48:04;;;;;;;5.47;4.93;;;;;;;;;;5003851;28;20818;-48
2021/04/17 11:50:30;;;;;;;5.70;5.20;;;;;;;;;;4998126;28;20223;-47
2021/04/17 11:52:55;;;;;;;5.90;5.30;;;;;;;;;;4988337;28;20650;-47
2021/04/17 11:55:20;;;;;;;5.57;4.88;;;;;;;;;;4991824;28;20176;-47
2021/04/17 11:57:45;;;;;;;5.73;5.33;;;;;;;;;;4985083;28;20288;-47
2021/04/17 12:00:11;;;;;;;5.30;4.80;;;;;;;;;;4991552;28;20267;-47
2021/04/17 12:02:36;;;;;;;6.20;4.83;;;;;;;;;;4998407;28;20250;-47
2021/04/17 12:05:01;;;;;;;7.30;5.47;;;;;;;;;;4990553;28;20641;-47
2021/04/17 12:07:26;;;;;;;5.78;5.18;;;;;;;;;;4996641;28;20176;-47
2021/04/17 12:09:53;;;;;;;5.20;4.68;;;;;;;;;;5003394;28;20266;-47
2021/04/17 12:12:18;;;;;;;5.17;4.77;;;;;;;;;;4999771;28;20745;-47
2021/04/17 12:14:43;;;;;;;6.33;5.70;;;;;;;;;;4984654;28;20750;-47
2021/04/17 12:17:08;;;;;;;5.70;5.30;;;;;;;;;;4998738;28;20769;-47
2021/04/17 12:19:34;;;;;;;6.10;5.50;;;;;;;;;;4987363;28;20722;-47
2021/04/17 12:21:59;;;;;;;7.70;5.30;;;;;;;;;;4992670;28;20184;-47
2021/04/17 12:24:24;;;;;;;8.50;6.47;;;;;;;;;;5003499;28;20219;-47
2021/04/17 12:26:50;;;;;;;5.87;5.37;;;;;;;;;;4999316;28;20185;-48
2021/04/17 12:29:15;;;;;;;5.87;5.30;;;;;;;;;;4992168;28;20176;-47
2021/04/17 12:31:40;;;;;;;5.37;4.90;;;;;;;;;;5007059;28;20261;-47
2021/04/17 12:34:05;;;;;;;5.03;4.60;;;;;;;;;;5005619;28;20263;-47
2021/04/17 12:36:30;;;;;;;5.53;5.03;;;;;;;;;;5006666;28;20185;-48
2021/04/17 12:38:55;;;;;;;5.65;4.90;;;;;;;;;;5005616;28;20168;-47
2021/04/17 12:41:21;;;;;;;5.40;4.70;;;;;;;;;;4993221;28;20599;-47
2021/04/17 12:43:46;;;;;;;6.10;5.30;;;;;;;;;;4987518;28;20540;-47
2021/04/17 12:46:12;;;;;;;6.17;5.57;;;;;;;;;;4994503;28;20188;-47
2021/04/17 12:48:37;;;;;;;5.13;4.73;;;;;;;;;;4996148;28;20675;-47
2021/04/17 12:51:02;;;;;;;6.93;5.70;;;;;;;;;;5001616;28;20248;-46
2021/04/17 12:53:27;;;;;;;6.63;5.43;;;;;;;;;;4992622;28;20208;-46
2021/04/17 12:55:53;;;;;;;6.13;5.43;;;;;;;;;;5000267;28;20258;-46
2021/04/17 12:58:18;;;;;;;7.20;6.10;;;;;;;;;;4995055;28;20664;-46
2021/04/17 13:00:44;;;;;;;6.27;5.70;;;;;;;;;;4995008;28;20219;-46
2021/04/17 13:03:09;;;;;;;5.70;5.20;;;;;;;;;;4993245;28;20177;-46
2021/04/17 13:05:34;;;;;;;5.67;5.20;;;;;;;;;;5001518;28;20332;-48
2021/04/17 13:08:02;;;;;;;5.97;5.30;;;;;;;;;;4994643;28;20909;-46
2021/04/17 13:10:28;;;;;;;6.20;5.60;;;;;;;;;;5005185;28;20196;-48
2021/04/17 13:12:53;;;;;;;5.60;5.30;;;;;;;;;;4986988;28;20603;-47
2021/04/17 13:15:18;;;;;;;6.10;5.67;;;;;;;;;;5005183;28;20203;-47
2021/04/17 13:17:43;;;;;;;5.67;5.17;;;;;;;;;;5008242;28;20260;-47
2021/04/17 13:20:09;;;;;;;7.07;5.75;;;;;;;;;;5006243;28;20380;-48
2021/04/17 13:22:34;;;;;;;8.27;5.97;;;;;;;;;;5006161;28;20211;-47
2021/04/17 13:25:00;;;;;;;6.37;5.77;;;;;;;;;;5009676;28;20216;-48
2021/04/17 13:27:25;;;;;;;6.70;6.10;;;;;;;;;;5015765;28;20888;-47
2021/04/17 13:29:50;;;;;;;6.95;5.60;;;;;;;;;;5017624;28;20204;-47
2021/04/17 13:32:15;;;;;;;5.85;5.35;;;;;;;;;;5016077;28;20271;-47
2021/04/17 13:34:42;;;;;;;6.43;5.70;;;;;;;;;;5016826;28;20674;-46
2021/04/17 13:37:07;;;;;;;7.30;6.00;;;;;;;;;;5016881;28;20188;-47
2021/04/17 13:39:32;;;;;;;6.10;5.50;;;;;;;;;;5016573;28;20601;-47
2021/04/17 13:41:57;;;;;;;6.13;5.63;;;;;;;;;;5017416;28;20181;-49
2021/04/17 13:44:22;;;;;;;7.10;5.37;;;;;;;;;;5011839;28;20272;-47
2021/04/17 13:46:47;;;;;;;6.35;5.85;;;;;;;;;;5005533;28;20228;-49
2021/04/17 13:49:13;;;;;;;5.77;5.10;;;;;;;;;;4994147;28;20846;-48
2021/04/17 13:51:38;;;;;;;5.73;5.20;;;;;;;;;;5001622;28;20185;-47
2021/04/17 13:54:03;;;;;;;7.20;6.57;;;;;;;;;;5004074;28;20210;-47
2021/04/17 13:56:28;;;;;;;6.90;5.63;;;;;;;;;;4993340;28;20249;-46
2021/04/17 13:58:54;;;;;;;6.70;6.10;;;;;;;;;;4997253;28;20670;-48
2021/04/17 14:01:19;;;;;;;6.50;5.90;;;;;;;;;;4989605;28;20171;-49
2021/04/17 14:03:44;;;;;;;6.03;5.50;;;;;;;;;;5006824;28;20177;-48
2021/04/17 14:06:09;;;;;;;7.33;6.07;;;;;;;;;;5006253;28;20664;-49
2021/04/17 14:08:36;;;;;;;6.30;5.70;;;;;;;;;;5002444;28;20215;-48
2021/04/17 14:11:01;;;;;;;6.20;5.27;;;;;;;;;;5010028;28;20261;-48
2021/04/17 14:13:26;;;;;;;6.00;5.40;;;;;;;;;;4996616;28;20803;-49
2021/04/17 14:15:51;;;;;;;5.90;5.50;;;;;;;;;;5005612;28;20320;-46
2021/04/17 14:18:16;;;;;;;5.63;5.13;;;;;;;;;;4986525;28;20177;-47
2021/04/17 14:20:42;;;;;;;5.80;5.30;;;;;;;;;;5005365;28;20259;-46
2021/04/17 14:23:07;;;;;;;5.75;5.25;;;;;;;;;;5005712;28;20200;-47
2021/04/17 14:25:32;;;;;;;6.50;5.90;;;;;;;;;;5007727;28;20722;-47
2021/04/17 14:27:57;;;;;;;8.07;6.70;;;;;;;;;;5005212;28;20186;-47
2021/04/17 14:30:23;;;;;;;10.43;9.43;;;;;;;;;;5000023;28;20184;-47
2021/04/17 14:32:48;;;;;;;7.60;6.77;;;;;;;;;;4994926;28;20198;-47
2021/04/17 14:35:13;;;;;;;9.07;6.13;;;;;;;;;;5006558;28;20187;-47
2021/04/17 14:37:39;;;;;;;6.47;5.87;;;;;;;;;;5005950;28;20548;-48
2021/04/17 14:40:07;;;;;;;6.30;5.80;;;;;;;;;;5006220;28;20209;-47